createdAt,value
2017-06-23T14:16:42.141Z,49.9
2017-06-23T14:18:04.754Z,49.99
2017-06-23T14:19:26.043Z,48.95
2017-06-23T14:20:48.250Z,48.93
2017-06-23T14:22:10.965Z,49.32
2017-06-23T14:23:33.483Z,48.75
2017-06-23T14:24:55.014Z,48.25
2017-06-23T14:26:17.196Z,48.9
2017-06-23T14:27:39.392Z,51.59
2017-06-23T14:29:01.309Z,52.15
2017-06-23T14:30:23.769Z,51.18
2017-06-23T14:31:46.056Z,51.37
2017-06-23T14:33:08.951Z,50.31
2017-06-23T14:34:31.446Z,47.72
2017-06-23T14:35:53.623Z,47.03
2017-06-23T14:37:15.472Z,46.65
2017-06-23T14:38:37.947Z,47.52
2017-06-23T14:40:00.435Z,48.59
2017-06-23T14:41:21.972Z,46.75
2017-06-23T14:42:43.797Z,48.49
2017-06-23T14:44:05.987Z,49.07
2017-06-23T14:45:28.453Z,49.95
2017-06-23T14:46:50.399Z,49.82
2017-06-23T14:48:12.539Z,51.76
2017-06-23T14:49:35.367Z,49.63
2017-06-23T14:50:56.923Z,49.73
2017-06-23T14:52:18.909Z,50.02
2017-06-23T14:53:41.048Z,49.85
2017-06-23T14:55:03.974Z,50.14
2017-06-23T14:56:25.924Z,49.39
2017-06-23T14:57:47.871Z,49.87
2017-06-23T14:59:10.329Z,48.78
2017-06-23T15:00:32.955Z,50.24
2017-06-23T15:01:55.320Z,51.98
2017-06-23T15:03:17.928Z,53.12
2017-06-23T15:04:40.407Z,52.64
2017-06-23T15:06:03.166Z,52.83
2017-06-23T15:07:25.642Z,53.41
2017-06-23T15:08:47.553Z,54.74
2017-06-23T15:10:09.598Z,53.39
2017-06-23T15:11:32.046Z,53.49
2017-06-23T15:12:54.530Z,54.43
2017-06-23T15:14:17.144Z,55
2017-06-23T15:15:39.608Z,56.75
2017-06-23T15:17:02.358Z,56.46
2017-06-23T15:18:24.202Z,56.26
2017-06-23T15:19:46.433Z,55.78
2017-06-23T15:21:08.894Z,56.07
2017-06-23T15:22:31.763Z,55.56
2017-06-23T15:23:53.602Z,57.4
2017-06-23T15:25:15.745Z,58.27
2017-06-23T15:26:37.986Z,58.75
2017-06-23T15:28:00.923Z,58.14
2017-06-23T15:29:22.842Z,57.66
2017-06-23T15:30:45.019Z,56.86
2017-06-23T15:32:07.229Z,55.53
2017-06-23T15:33:29.682Z,55.15
2017-06-23T15:34:50.874Z,56.28
2017-06-23T15:36:13.033Z,54.93
2017-06-23T15:37:35.163Z,56.09
2017-06-23T15:38:57.982Z,56.37
2017-06-23T15:40:20.509Z,52.12
2017-06-23T15:41:42.419Z,53.28
2017-06-23T15:43:03.644Z,53.28
2017-06-23T15:44:26.588Z,52.51
2017-06-23T15:45:48.204Z,51.66
2017-06-23T15:47:10.704Z,52.63
2017-06-23T15:48:32.556Z,51.66
2017-06-23T15:49:54.694Z,52.05
2017-06-23T15:51:16.851Z,51.86
2017-06-23T15:52:39.353Z,52.44
2017-06-23T15:54:01.904Z,51.95
2017-06-23T15:55:24.721Z,50.79
2017-06-23T15:56:46.954Z,52.24
2017-06-23T15:58:09.122Z,51.56
2017-06-23T15:59:31.020Z,51.76
2017-06-23T16:00:53.078Z,52.53
2017-06-23T16:02:15.262Z,52.82
2017-06-23T16:03:37.401Z,54.15
2017-06-23T16:04:59.599Z,54.9
2017-06-23T16:06:22.141Z,57.21
2017-06-23T16:07:43.983Z,58.37
2017-06-23T16:09:06.197Z,58.73
2017-06-23T16:10:28.372Z,61.05
2017-06-23T16:11:50.446Z,62.89
2017-06-23T16:13:12.605Z,62.4
2017-06-23T16:14:34.113Z,61.44
2017-06-23T16:15:56.572Z,60.67
2017-06-23T16:17:19.351Z,61.54
2017-06-23T16:18:41.292Z,61.92
2017-06-23T16:20:03.831Z,62.5
2017-06-23T16:21:25.673Z,62.98
2017-06-23T16:22:48.510Z,62.02
2017-06-23T16:24:10.686Z,63.18
2017-06-23T16:25:33.142Z,63.18
2017-06-23T16:26:55.627Z,63.28
2017-06-23T16:28:18.447Z,63.85
2017-06-23T16:29:40.962Z,63.76
2017-06-23T16:31:03.108Z,63.82
2017-06-23T16:32:25.623Z,64.59
2017-06-23T16:33:48.460Z,64.69
2017-06-23T16:35:10.915Z,65.37
2017-06-23T16:36:33.173Z,64.98
2017-06-23T16:37:55.406Z,65.05
2017-06-23T16:39:17.910Z,66.01
2017-06-23T16:40:40.402Z,66.63
2017-06-23T16:42:02.974Z,66.82
2017-06-23T16:43:25.435Z,66.4
2017-06-23T16:44:48.282Z,66.2
2017-06-23T16:46:10.440Z,65.05
2017-06-23T16:47:32.589Z,64.86
2017-06-23T16:48:54.803Z,65.24
2017-06-23T16:50:16.864Z,64.69
2017-06-23T16:51:39.028Z,65.56
2017-06-23T16:53:00.240Z,65.17
2017-06-23T16:54:22.391Z,65.82
2017-06-23T16:55:44.206Z,66.14
2017-06-23T16:57:06.759Z,65.72
2017-06-23T16:58:28.907Z,66.3
2017-06-23T16:59:51.201Z,67.27
2017-06-23T17:01:13.693Z,67.55
2017-06-23T17:02:35.943Z,66.75
2017-06-23T17:03:57.551Z,66.17
2017-06-23T17:05:19.699Z,66.88
2017-06-23T17:06:41.895Z,67.36
2017-06-23T17:08:04.344Z,67.27
2017-06-23T17:09:26.854Z,67.55
2017-06-23T17:10:48.792Z,66.97
2017-06-23T17:12:30.704Z,67.65
2017-06-23T17:13:52.533Z,66.97
2017-06-23T17:15:14.992Z,67.36
2017-06-23T17:16:36.902Z,67.23
2017-06-23T17:17:59.405Z,68.59
2017-06-23T17:19:21.625Z,69.45
2017-06-23T17:20:44.101Z,69.16
2017-06-23T17:22:06.354Z,69.42
2017-06-23T17:23:29.168Z,70.38
2017-06-23T17:24:51.354Z,70.86
2017-06-23T17:26:12.893Z,71.54
2017-06-23T17:27:35.064Z,71.06
2017-06-23T17:28:57.247Z,72.12
2017-06-23T17:30:19.711Z,71.44
2017-06-23T17:31:41.853Z,71.44
2017-06-23T17:33:03.984Z,71.64
2017-06-23T17:34:26.704Z,72.79
2017-06-23T17:35:48.834Z,72.69
2017-06-23T17:37:11.033Z,72.31
2017-06-23T17:38:33.193Z,72.21
2017-06-23T17:39:55.443Z,72.54
2017-06-23T17:41:17.695Z,71.67
2017-06-23T17:42:39.867Z,72.34
2017-06-23T17:44:01.693Z,72.44
2017-06-23T17:45:23.983Z,72.69
2017-06-23T17:46:45.888Z,73.57
2017-06-23T17:48:08.019Z,74.52
2017-06-23T17:49:30.474Z,74.58
2017-06-23T17:50:52.985Z,75.07
2017-06-23T17:52:15.453Z,75.07
2017-06-23T17:53:37.955Z,75.07
2017-06-23T17:55:00.110Z,75.84
2017-06-23T17:56:22.185Z,74.4
2017-06-23T17:57:44.695Z,75.51
2017-06-23T17:59:07.150Z,75.71
2017-06-23T18:00:29.017Z,76.18
2017-06-23T18:01:50.916Z,75.61
2017-06-23T18:03:12.663Z,76.18
2017-06-23T18:04:34.955Z,75.42
2017-06-23T18:05:57.311Z,76.28
2017-06-23T18:07:20.154Z,76.09
2017-06-23T18:08:42.635Z,76.18
2017-06-23T18:10:04.816Z,76.86
2017-06-23T18:11:27.013Z,77.53
2017-06-23T18:12:49.794Z,77.34
2017-06-23T18:14:11.669Z,77.25
2017-06-23T18:15:33.965Z,77.88
2017-06-23T18:16:56.475Z,77.73
2017-06-23T18:18:18.434Z,77.88
2017-06-23T18:19:40.971Z,78.94
2017-06-23T18:21:02.824Z,79.43
2017-06-23T18:22:25.005Z,80.19
2017-06-23T18:23:46.888Z,80.96
2017-06-23T18:25:08.785Z,81.93
2017-06-23T18:26:30.316Z,82.98
2017-06-23T18:27:52.481Z,83.85
2017-06-23T18:29:14.641Z,85
2017-06-23T18:30:36.834Z,87.32
2017-06-23T18:31:59.314Z,87.27
2017-06-23T18:33:21.704Z,88.71
2017-06-23T18:34:44.153Z,89.97
2017-06-23T18:36:06.652Z,91.56
2017-06-23T18:37:28.941Z,92.81
2017-06-23T18:38:51.150Z,92.52
2017-06-23T18:40:14.104Z,93.87
2017-06-23T18:41:36.084Z,93.73
2017-06-23T18:42:58.245Z,94.4
2017-06-23T18:44:20.747Z,93.44
2017-06-23T18:45:42.959Z,95.65
2017-06-23T18:47:05.256Z,95.45
2017-06-23T18:48:27.439Z,94.78
2017-06-23T18:49:50.096Z,96.08
2017-06-23T18:51:12.846Z,95.45
2017-06-23T18:52:35.325Z,96.08
2017-06-23T18:53:57.841Z,90.7
2017-06-23T18:55:20.031Z,89.83
2017-06-23T18:56:42.866Z,89.07
2017-06-23T18:58:05.104Z,88.01
2017-06-23T18:59:27.591Z,85.61
2017-06-23T19:00:50.079Z,85.99
2017-06-23T19:02:12.615Z,86.81
2017-06-23T19:03:34.798Z,86.81
2017-06-23T19:04:57.280Z,85.85
2017-06-23T19:06:19.193Z,86.72
2017-06-23T19:07:41.395Z,87.29
2017-06-23T19:09:03.980Z,86.91
2017-06-23T19:10:26.163Z,86.96
2017-06-23T19:11:48.346Z,83.89
2017-06-23T19:13:10.983Z,83.89
2017-06-23T19:14:33.524Z,83.98
2017-06-23T19:15:56.035Z,83.7
2017-06-23T19:17:18.249Z,83.03
2017-06-23T19:18:41.116Z,83.03
2017-06-23T19:20:03.619Z,83.51
2017-06-23T19:21:25.786Z,82.64
2017-06-23T19:22:48.316Z,83.41
2017-06-23T19:24:11.065Z,82.74
2017-06-23T19:25:32.947Z,82.16
2017-06-23T19:26:55.193Z,82.54
2017-06-23T19:28:17.791Z,83.12
2017-06-23T19:29:40.797Z,80.82
2017-06-23T19:31:02.965Z,81.4
2017-06-23T19:32:25.607Z,82.74
2017-06-23T19:33:47.750Z,81.68
2017-06-23T19:35:10.294Z,80.05
2017-06-23T19:36:32.776Z,80.63
2017-06-23T19:37:55.037Z,79.57
2017-06-23T19:39:17.526Z,79.57
2017-06-23T19:40:40.278Z,78.99
2017-06-23T19:42:02.777Z,79.47
2017-06-23T19:43:24.947Z,80.15
2017-06-23T19:44:47.545Z,81.4
2017-06-23T19:46:09.766Z,81.78
2017-06-23T19:47:32.266Z,82.74
2017-06-23T19:48:54.522Z,82.93
2017-06-23T19:50:17.022Z,83.22
2017-06-23T19:51:39.746Z,83.03
2017-06-23T19:53:01.841Z,84.18
2017-06-23T19:54:24.356Z,84.08
2017-06-23T19:55:46.544Z,84.18
2017-06-23T19:57:09.425Z,84.75
2017-06-23T19:58:31.066Z,85.24
2017-06-23T19:59:53.543Z,84.52
2017-06-23T20:01:15.806Z,85.19
2017-06-23T20:02:38.586Z,86.25
2017-06-23T20:04:00.894Z,86.15
2017-06-23T20:05:22.822Z,86.19
2017-06-23T20:06:44.401Z,86.54
2017-06-23T20:08:07.206Z,87.78
2017-06-23T20:09:29.696Z,89.32
2017-06-23T20:10:52.195Z,91.42
2017-06-23T20:12:14.676Z,94.12
2017-06-23T20:13:37.190Z,95.46
2017-06-23T20:14:59.376Z,95.6
2017-06-23T20:16:22.045Z,96.66
2017-06-23T20:17:44.534Z,96.66
2017-06-23T20:19:07.275Z,98.1
2017-06-23T20:20:29.474Z,98.57
2017-06-23T20:21:51.642Z,98.77
2017-06-23T20:23:13.514Z,99.44
2017-06-23T20:24:35.722Z,98.1
2017-06-23T20:25:58.236Z,97.23
2017-06-23T20:27:20.908Z,95.41
2017-06-23T20:28:43.376Z,94.64
2017-06-23T20:30:05.756Z,94.64
2017-06-23T20:31:27.689Z,94.17
2017-06-23T20:32:49.552Z,95.98
2017-06-23T20:34:11.393Z,97.33
2017-06-23T20:35:33.824Z,99.99
2017-06-23T20:36:55.980Z,99.99
2017-06-23T20:38:18.452Z,99.99
2017-06-23T20:39:40.398Z,99.99
2017-06-23T20:41:02.912Z,99.99
2017-06-23T20:42:25.109Z,99.99
2017-06-23T20:43:47.352Z,99.99
2017-06-23T20:45:09.595Z,99.99
2017-06-23T20:46:32.165Z,99.99
2017-06-23T20:47:54.027Z,99.99
2017-06-23T20:49:16.306Z,99.99
2017-06-23T20:50:38.765Z,99.99
2017-06-23T20:52:00.952Z,99.99
2017-06-23T20:53:23.123Z,99.99
2017-06-23T20:54:45.016Z,99.99
2017-06-23T20:56:07.214Z,99.99
2017-06-23T20:57:29.638Z,99.99
2017-06-23T20:58:51.779Z,99.99
2017-06-23T21:00:14.314Z,99.99
2017-06-23T21:01:36.797Z,99.99
2017-06-23T21:02:58.622Z,99.99
2017-06-23T21:04:21.105Z,99.99
2017-06-23T21:05:43.689Z,99.99
2017-06-23T21:07:05.830Z,99.99
2017-06-23T21:08:27.750Z,99.99
2017-06-23T21:09:49.985Z,99.99
2017-06-23T21:11:12.129Z,99.99
2017-06-23T21:12:34.599Z,99.99
2017-06-23T21:13:57.008Z,99.99
2017-06-23T21:15:19.015Z,99.99
2017-06-23T21:16:41.176Z,99.99
2017-06-23T21:18:03.332Z,99.99
2017-06-23T21:19:26.052Z,99.99
2017-06-23T21:20:48.215Z,99.99
2017-06-23T21:22:10.613Z,99.99
2017-06-23T21:23:32.797Z,99.99
2017-06-23T21:24:55.642Z,99.99
2017-06-23T21:26:18.049Z,99.99
2017-06-23T21:27:40.532Z,99.99
2017-06-23T21:29:02.696Z,99.99
2017-06-23T21:30:25.200Z,99.99
2017-06-23T21:31:47.376Z,99.99
2017-06-23T21:33:09.865Z,99.99
2017-06-23T21:34:32.017Z,99.99
2017-06-23T21:35:54.275Z,99.99
2017-06-23T21:37:16.133Z,99.99
2017-06-23T21:38:37.985Z,99.99
2017-06-23T21:40:00.216Z,99.99
2017-06-23T21:41:22.950Z,99.99
2017-06-23T21:42:45.121Z,99.99
2017-06-23T21:44:07.348Z,99.99
2017-06-23T21:45:29.532Z,99.99
2017-06-23T21:46:52.284Z,99.99
2017-06-23T21:48:14.736Z,99.99
2017-06-23T21:49:37.182Z,99.99
2017-06-23T21:50:59.328Z,99.99
2017-06-23T21:52:22.034Z,99.99
2017-06-23T21:53:44.471Z,99.99
2017-06-23T21:55:06.274Z,99.99
2017-06-23T21:56:28.155Z,99.99
2017-06-23T21:57:50.592Z,99.99
2017-06-23T21:59:12.145Z,99.99
2017-06-23T22:00:34.727Z,99.99
2017-06-23T22:01:56.875Z,99.99
2017-06-23T22:03:19.595Z,99.99
2017-06-23T22:04:41.442Z,99.99
2017-06-23T22:06:03.901Z,99.99
2017-06-23T22:07:26.106Z,99.99
2017-06-23T22:08:48.861Z,99.99
2017-06-23T22:10:11.312Z,99.99
2017-06-23T22:11:33.544Z,99.99
2017-06-23T22:12:55.523Z,99.99
2017-06-23T22:14:17.904Z,99.99
2017-06-23T22:15:39.734Z,99.99
2017-06-23T22:17:02.221Z,99.99
2017-06-23T22:18:23.719Z,99.99
2017-06-23T22:19:45.839Z,99.99
2017-06-23T22:21:08.134Z,99.99
2017-06-23T22:22:29.753Z,99.99
2017-06-23T22:23:52.288Z,99.99
2017-06-23T22:25:14.853Z,99.99
2017-06-23T22:26:36.993Z,99.99
2017-06-23T22:27:59.162Z,99.99
2017-06-23T22:29:21.321Z,99.99
2017-06-23T22:30:43.465Z,99.99
2017-06-23T22:32:05.605Z,99.99
2017-06-23T22:33:27.763Z,99.99
2017-06-23T22:34:49.603Z,99.99
2017-06-23T22:36:11.694Z,99.99
2017-06-23T22:37:33.965Z,99.99
2017-06-23T22:38:56.094Z,99.99
2017-06-23T22:40:18.664Z,99.99
2017-06-23T22:41:40.756Z,99.99
2017-06-23T22:43:03.204Z,99.99
2017-06-23T22:44:25.446Z,99.99
2017-06-23T22:45:47.593Z,99.99
2017-06-23T22:47:09.531Z,99.99
2017-06-23T22:48:31.742Z,99.99
2017-06-23T22:49:53.882Z,99.99
2017-06-23T22:51:16.062Z,99.99
2017-06-23T22:52:38.178Z,99.99
2017-06-23T22:54:00.333Z,99.99
2017-06-23T22:55:22.466Z,99.99
2017-06-23T22:56:44.636Z,99.99
2017-06-23T22:58:07.069Z,99.99
2017-06-23T22:59:28.253Z,99.99
2017-06-23T23:00:50.382Z,99.99
2017-06-23T23:02:11.966Z,99.99
2017-06-23T23:03:34.104Z,99.99
2017-06-23T23:04:56.383Z,99.99
2017-06-23T23:06:18.853Z,99.99
2017-06-23T23:07:40.693Z,99.99
2017-06-23T23:09:02.543Z,99.99
2017-06-23T23:10:24.683Z,99.99
2017-06-23T23:11:46.804Z,99.99
2017-06-23T23:13:09.086Z,99.99
2017-06-23T23:14:31.305Z,99.99
2017-06-23T23:15:53.773Z,99.99
2017-06-23T23:17:15.902Z,99.99
2017-06-23T23:18:37.713Z,99.99
2017-06-23T23:20:00.507Z,99.99
2017-06-23T23:21:22.652Z,99.99
2017-06-23T23:22:44.185Z,99.99
2017-06-23T23:24:06.302Z,99.99
2017-06-23T23:25:28.431Z,99.99
2017-06-23T23:26:49.971Z,99.99
2017-06-23T23:28:12.407Z,99.99
2017-06-23T23:29:34.518Z,99.99
2017-06-23T23:30:56.990Z,99.99
2017-06-23T23:32:19.119Z,99.99
2017-06-23T23:33:41.607Z,99.99
2017-06-23T23:35:03.443Z,99.99
2017-06-23T23:36:25.973Z,99.99
2017-06-23T23:37:47.791Z,99.99
2017-06-23T23:39:10.012Z,99.99
2017-06-23T23:40:31.843Z,99.99
2017-06-23T23:41:54.257Z,99.99
2017-06-23T23:43:16.713Z,99.99
2017-06-23T23:44:38.921Z,99.99
2017-06-23T23:46:00.466Z,99.99
2017-06-23T23:47:22.302Z,99.99
2017-06-23T23:48:44.109Z,99.99
2017-06-23T23:50:06.064Z,99.99
2017-06-23T23:51:28.500Z,99.99
2017-06-23T23:52:51.474Z,99.99
2017-06-23T23:54:12.957Z,99.99
2017-06-23T23:55:34.143Z,99.99
2017-06-23T23:56:56.356Z,99.99
2017-06-23T23:58:19.212Z,99.99
2017-06-23T23:59:41.682Z,99.99
